createdAt,value
2022-11-16T00:01:39.227Z,32.47
2022-11-16T00:04:05.995Z,34.40
2022-11-16T00:06:32.754Z,33.78
2022-11-16T00:09:20.543Z,33.75
2022-11-16T00:11:53.325Z,32.80
2022-11-16T00:14:21.507Z,33.42
2022-11-16T00:16:48.231Z,32.78
2022-11-16T00:19:15.068Z,33.78
2022-11-16T00:21:41.819Z,33.67
2022-11-16T00:24:12.672Z,32.88
2022-11-16T00:26:39.580Z,35.47
2022-11-16T00:29:06.468Z,33.85
2022-11-16T00:31:33.119Z,33.83
2022-11-16T00:33:59.773Z,33.13
2022-11-16T00:36:26.426Z,32.88
2022-11-16T00:38:55.801Z,32.90
2022-11-16T00:41:22.786Z,31.83
2022-11-16T00:43:49.435Z,31.65
2022-11-16T00:46:16.173Z,33.05
2022-11-16T00:48:42.845Z,32.47
2022-11-16T00:51:09.527Z,33.85
2022-11-16T00:53:36.704Z,33.00
2022-11-16T00:56:03.555Z,33.63
2022-11-16T00:58:30.517Z,33.28
2022-11-16T01:00:57.232Z,32.65
2022-11-16T01:03:23.874Z,31.77
2022-11-16T01:05:50.491Z,32.55
2022-11-16T01:08:17.117Z,32.08
2022-11-16T01:10:43.848Z,30.58
2022-11-16T01:13:11.435Z,30.08
2022-11-16T01:15:38.126Z,31.77
2022-11-16T01:18:04.992Z,32.28
2022-11-16T01:20:31.745Z,31.60
2022-11-16T01:22:58.442Z,29.52
2022-11-16T01:25:25.152Z,31.65
2022-11-16T01:27:51.877Z,31.10
2022-11-16T01:30:18.648Z,31.60
2022-11-16T01:32:45.336Z,31.90
2022-11-16T01:35:18.402Z,32.40
2022-11-16T01:37:45.255Z,28.83
2022-11-16T01:40:14.047Z,30.63
2022-11-16T01:42:40.780Z,29.83
2022-11-16T01:45:41.165Z,30.63
2022-11-16T01:48:10.273Z,33.25
2022-11-16T01:50:38.342Z,32.88
2022-11-16T01:53:07.356Z,34.55
2022-11-16T01:55:37.018Z,34.22
2022-11-16T01:58:04.491Z,33.28
2022-11-16T02:00:31.549Z,33.10
2022-11-16T02:02:58.239Z,35.10
2022-11-16T02:05:38.187Z,34.83
2022-11-16T02:08:51.706Z,33.72
2022-11-16T02:11:49.892Z,34.15
2022-11-16T02:14:43.176Z,35.67
2022-11-16T02:17:37.740Z,35.83
2022-11-16T02:20:45.895Z,37.20
2022-11-16T02:23:18.318Z,36.30
2022-11-16T02:26:14.179Z,38.30
2022-11-16T02:29:09.984Z,36.42
2022-11-16T02:31:42.032Z,37.90
2022-11-16T02:34:11.975Z,41.17
2022-11-16T02:36:41.971Z,39.30
2022-11-16T02:39:14.555Z,40.50
2022-11-16T02:41:44.126Z,38.78
2022-11-16T02:44:24.889Z,42.42
2022-11-16T02:46:56.420Z,40.75
2022-11-16T02:49:25.019Z,43.35
2022-11-16T02:51:53.291Z,41.25
2022-11-16T02:54:21.883Z,42.05
2022-11-16T02:57:12.187Z,41.08
2022-11-16T02:59:44.152Z,43.33
2022-11-16T03:02:31.678Z,44.20
2022-11-16T03:05:31.877Z,43.90
2022-11-16T03:08:14.798Z,45.75
2022-11-16T03:11:03.115Z,43.70
2022-11-16T03:13:33.503Z,42.50
2022-11-16T03:16:05.349Z,44.35
2022-11-16T03:18:32.482Z,42.28
2022-11-16T03:21:10.955Z,40.63
2022-11-16T03:23:37.954Z,43.80
2022-11-16T03:26:08.223Z,42.55
2022-11-16T03:29:02.123Z,42.10
2022-11-16T03:31:34.913Z,43.35
2022-11-16T03:34:06.859Z,43.58
2022-11-16T03:36:36.734Z,45.13
2022-11-16T03:39:10.481Z,44.83
2022-11-16T03:41:41.388Z,43.72
2022-11-16T03:44:10.577Z,44.50
2022-11-16T03:46:37.639Z,45.67
2022-11-16T03:49:05.743Z,45.03
2022-11-16T03:51:32.429Z,45.60
2022-11-16T03:53:59.128Z,44.75
2022-11-16T03:56:26.055Z,44.13
2022-11-16T03:58:52.740Z,44.15
2022-11-16T04:01:19.553Z,46.80
2022-11-16T04:03:46.365Z,44.88
2022-11-16T04:06:31.700Z,46.45
2022-11-16T04:09:30.557Z,44.03
2022-11-16T04:12:16.093Z,44.05
2022-11-16T04:15:01.212Z,46.33
2022-11-16T04:17:46.717Z,45.42
2022-11-16T04:20:33.488Z,45.30
2022-11-16T04:23:26.845Z,45.00
2022-11-16T04:25:53.729Z,45.00
2022-11-16T04:28:24.168Z,46.88
2022-11-16T04:31:15.269Z,46.58
2022-11-16T04:34:00.833Z,45.42
2022-11-16T04:36:46.358Z,47.38
2022-11-16T04:39:13.210Z,46.55
2022-11-16T04:41:58.437Z,48.15
2022-11-16T04:44:45.052Z,46.42
2022-11-16T04:47:11.736Z,47.92
2022-11-16T04:49:38.384Z,45.53
2022-11-16T04:52:05.018Z,47.80
2022-11-16T04:54:31.696Z,48.28
2022-11-16T04:56:58.340Z,48.20
2022-11-16T04:59:25.411Z,48.55
2022-11-16T05:02:10.007Z,48.40
2022-11-16T05:07:10.539Z,45.72
2022-11-16T05:09:43.093Z,49.28
2022-11-16T05:12:11.566Z,49.83
2022-11-16T05:14:38.265Z,49.13
2022-11-16T05:17:04.910Z,50.38
2022-11-16T05:19:50.103Z,48.00
2022-11-16T05:22:16.795Z,47.47
2022-11-16T05:24:43.551Z,48.13
2022-11-16T05:27:12.993Z,49.75
2022-11-16T05:29:39.809Z,49.08
2022-11-16T05:32:07.404Z,46.88
2022-11-16T05:34:34.309Z,51.67
2022-11-16T05:37:01.486Z,47.28
2022-11-16T05:39:28.296Z,47.88
2022-11-16T05:41:56.048Z,48.67
2022-11-16T05:44:22.771Z,49.20
2022-11-16T05:46:49.647Z,48.55
2022-11-16T05:49:17.026Z,48.60
2022-11-16T05:51:45.386Z,49.15
2022-11-16T05:54:14.424Z,47.45
2022-11-16T05:56:41.337Z,47.15
2022-11-16T05:59:11.235Z,48.92
2022-11-16T06:01:42.591Z,49.22
2022-11-16T06:04:09.785Z,48.13
2022-11-16T06:06:36.710Z,48.67
2022-11-16T06:09:03.957Z,47.13
2022-11-16T06:11:35.732Z,47.88
2022-11-16T06:14:03.030Z,47.97
2022-11-16T06:16:29.797Z,48.10
2022-11-16T06:18:56.465Z,48.63
2022-11-16T06:21:23.605Z,46.05
2022-11-16T06:23:50.378Z,46.58
2022-11-16T06:26:17.119Z,49.63
2022-11-16T06:28:44.747Z,48.45
2022-11-16T06:31:11.351Z,45.85
2022-11-16T06:33:38.044Z,48.30
2022-11-16T06:36:04.975Z,46.70
2022-11-16T06:38:31.977Z,47.22
2022-11-16T06:40:59.405Z,45.58
2022-11-16T06:43:26.619Z,46.53
2022-11-16T06:45:56.761Z,43.78
2022-11-16T06:48:23.494Z,47.00
2022-11-16T06:50:52.090Z,44.45
2022-11-16T06:53:20.887Z,46.00
2022-11-16T06:55:49.219Z,45.60
2022-11-16T06:58:16.259Z,48.35
2022-11-16T07:00:43.005Z,45.10
2022-11-16T07:03:10.002Z,45.70
2022-11-16T07:05:39.924Z,47.05
2022-11-16T07:08:06.617Z,45.88
2022-11-16T07:10:33.406Z,44.50
2022-11-16T07:13:03.346Z,44.83
2022-11-16T07:15:30.434Z,44.80
2022-11-16T07:17:57.087Z,41.67
2022-11-16T07:20:23.992Z,41.40
2022-11-16T07:22:50.753Z,43.25
2022-11-16T07:25:17.489Z,43.08
2022-11-16T07:27:44.148Z,42.22
2022-11-16T07:30:11.364Z,43.45
2022-11-16T07:32:39.826Z,40.53
2022-11-16T07:35:06.928Z,42.38
2022-11-16T07:37:33.577Z,40.45
2022-11-16T07:40:00.250Z,39.42
2022-11-16T07:42:26.986Z,39.92
2022-11-16T07:44:53.626Z,38.58
2022-11-16T07:47:20.268Z,39.45
2022-11-16T07:49:48.760Z,38.90
2022-11-16T07:52:15.459Z,38.60
2022-11-16T07:54:42.383Z,37.20
2022-11-16T07:57:09.078Z,38.65
2022-11-16T07:59:35.725Z,38.80
2022-11-16T08:02:02.451Z,36.33
2022-11-16T08:04:29.156Z,37.60
2022-11-16T08:06:55.816Z,37.75
2022-11-16T08:09:22.571Z,35.63
2022-11-16T08:11:50.928Z,36.53
2022-11-16T08:14:19.126Z,35.63
2022-11-16T08:16:45.930Z,33.30
2022-11-16T08:19:12.671Z,32.58
2022-11-16T08:21:39.363Z,31.88
2022-11-16T08:24:06.312Z,32.40
2022-11-16T08:26:33.060Z,30.38
2022-11-16T08:28:59.787Z,29.35
2022-11-16T08:31:28.428Z,30.45
2022-11-16T08:33:55.547Z,29.55
2022-11-16T08:36:22.519Z,28.88
2022-11-16T08:38:50.725Z,28.42
2022-11-16T08:41:18.197Z,31.05
2022-11-16T08:43:47.081Z,29.55
2022-11-16T08:46:14.752Z,26.45
2022-11-16T08:48:41.751Z,26.02
2022-11-16T08:51:19.981Z,26.85
2022-11-16T08:53:49.072Z,22.92
2022-11-16T08:56:17.765Z,25.13
2022-11-16T08:58:46.726Z,23.90
2022-11-16T09:01:17.891Z,22.63
2022-11-16T09:03:45.256Z,22.77
2022-11-16T09:06:13.031Z,22.00
2022-11-16T09:08:41.742Z,19.63
2022-11-16T09:11:10.956Z,21.40
2022-11-16T09:13:37.875Z,22.10
2022-11-16T09:16:05.485Z,22.15
2022-11-16T09:18:32.752Z,22.30
2022-11-16T09:20:59.875Z,21.92
2022-11-16T09:23:26.567Z,23.63
2022-11-16T09:25:53.592Z,24.02
2022-11-16T09:28:21.790Z,23.08
2022-11-16T09:30:50.962Z,24.35
2022-11-16T09:33:18.068Z,23.10
2022-11-16T09:35:44.969Z,24.63
2022-11-16T09:38:16.036Z,24.80
2022-11-16T09:40:47.372Z,26.15
2022-11-16T09:43:47.770Z,26.45
2022-11-16T09:46:22.899Z,24.70
2022-11-16T09:48:50.848Z,25.55
2022-11-16T09:51:21.050Z,26.63
2022-11-16T09:53:55.238Z,25.10
2022-11-16T09:59:19.567Z,26.25
2022-11-16T10:02:05.785Z,27.70
2022-11-16T10:04:51.412Z,27.58
2022-11-16T10:07:41.935Z,28.92
2022-11-16T10:10:17.453Z,28.08
2022-11-16T10:13:17.883Z,27.08
2022-11-16T10:16:14.284Z,29.77
2022-11-16T10:18:56.059Z,29.42
2022-11-16T10:21:26.504Z,30.25
2022-11-16T10:24:05.121Z,28.73
2022-11-16T10:26:45.768Z,31.30
2022-11-16T10:30:02.319Z,29.98
2022-11-16T10:32:31.913Z,27.92
2022-11-16T10:35:01.359Z,28.25
2022-11-16T10:37:31.912Z,29.70
2022-11-16T10:39:59.386Z,29.27
2022-11-16T10:42:36.134Z,28.02
2022-11-16T10:45:24.375Z,27.65
2022-11-16T10:48:06.108Z,28.95
2022-11-16T10:50:43.912Z,29.40
2022-11-16T10:53:15.377Z,26.98
2022-11-16T10:55:42.264Z,27.33
2022-11-16T10:58:09.125Z,28.13
2022-11-16T11:00:49.499Z,27.95
2022-11-16T11:03:30.468Z,27.10
2022-11-16T11:05:57.265Z,27.35
2022-11-16T11:08:30.451Z,27.65
2022-11-16T11:11:03.298Z,27.40
2022-11-16T11:13:30.043Z,28.60
2022-11-16T11:16:17.673Z,27.27
2022-11-16T11:18:45.708Z,26.88
2022-11-16T11:21:19.332Z,27.83
2022-11-16T11:23:50.723Z,27.80
2022-11-16T11:26:49.141Z,27.63
2022-11-16T11:29:36.139Z,26.30
2022-11-16T11:32:13.116Z,27.33
2022-11-16T11:34:42.795Z,26.80
2022-11-16T11:37:35.289Z,27.85
2022-11-16T11:40:23.920Z,28.15
2022-11-16T11:42:58.223Z,27.52
2022-11-16T11:48:32.116Z,25.80
2022-11-16T11:51:05.140Z,26.08
2022-11-16T11:53:50.183Z,27.45
2022-11-16T11:56:17.792Z,26.15
2022-11-16T11:58:45.456Z,25.98
2022-11-16T12:01:29.992Z,25.27
2022-11-16T12:07:03.243Z,24.50
2022-11-16T12:09:54.417Z,24.60
2022-11-16T12:12:33.411Z,24.17
2022-11-16T12:15:05.772Z,24.27
2022-11-16T12:17:44.511Z,24.13
2022-11-16T12:20:28.182Z,23.73
2022-11-16T12:23:12.611Z,22.30
2022-11-16T12:25:54.470Z,22.50
2022-11-16T12:28:51.533Z,22.40
2022-11-16T12:31:51.221Z,21.45
2022-11-16T12:34:41.138Z,22.20
2022-11-16T12:37:20.859Z,20.67
2022-11-16T12:40:23.648Z,20.58
2022-11-16T12:42:53.238Z,20.30
2022-11-16T12:45:31.871Z,21.25
2022-11-16T12:48:32.170Z,20.13
2022-11-16T12:51:01.643Z,20.08
2022-11-16T12:53:49.449Z,18.55
2022-11-16T12:56:58.851Z,19.02
2022-11-16T12:59:28.514Z,18.23
2022-11-16T13:02:19.234Z,18.63
2022-11-16T13:05:01.298Z,18.27
2022-11-16T13:07:37.401Z,19.15
2022-11-16T13:10:17.279Z,17.90
2022-11-16T13:12:47.621Z,17.92
2022-11-16T13:15:20.656Z,18.63
2022-11-16T13:17:57.479Z,17.35
2022-11-16T13:20:58.226Z,17.58
2022-11-16T13:23:31.109Z,16.60
2022-11-16T13:26:01.792Z,17.30
2022-11-16T13:28:56.952Z,16.15
2022-11-16T13:31:41.951Z,16.33
2022-11-16T13:34:25.813Z,16.83
2022-11-16T13:36:52.498Z,15.60
2022-11-16T13:39:40.155Z,15.13
2022-11-16T13:42:12.380Z,14.93
2022-11-16T13:44:39.436Z,14.82
2022-11-16T13:47:18.767Z,15.25
2022-11-16T13:49:56.612Z,15.02
2022-11-16T13:52:28.728Z,15.07
2022-11-16T13:55:23.174Z,15.50
2022-11-16T13:57:52.285Z,15.50
2022-11-16T14:00:39.779Z,14.50
2022-11-16T14:03:15.713Z,15.40
2022-11-16T14:05:49.233Z,15.13
2022-11-16T14:08:25.060Z,15.52
2022-11-16T14:10:51.681Z,14.00
2022-11-16T14:13:39.799Z,16.15
2022-11-16T14:16:21.753Z,15.30
2022-11-16T14:19:01.119Z,15.40
2022-11-16T14:21:48.961Z,15.55
2022-11-16T14:24:32.913Z,14.18
2022-11-16T14:27:30.744Z,14.07
2022-11-16T14:30:19.236Z,14.38
2022-11-16T14:32:54.986Z,14.07
2022-11-16T14:35:39.721Z,14.07
2022-11-16T14:38:27.790Z,12.68
2022-11-16T14:40:59.772Z,13.30
2022-11-16T14:43:30.188Z,12.68
2022-11-16T14:46:00.900Z,12.77
2022-11-16T14:48:28.779Z,12.85
2022-11-16T14:51:19.185Z,12.63
2022-11-16T14:53:49.902Z,11.68
2022-11-16T14:56:19.158Z,12.07
2022-11-16T14:58:51.868Z,12.55
2022-11-16T15:01:21.189Z,13.30
2022-11-16T15:04:09.348Z,12.93
2022-11-16T15:06:48.591Z,12.70
2022-11-16T15:09:40.006Z,11.70
2022-11-16T15:12:43.843Z,10.75
2022-11-16T15:15:10.495Z,10.52
2022-11-16T15:17:42.397Z,10.20
2022-11-16T15:20:13.298Z,10.13
2022-11-16T15:22:42.294Z,10.15
2022-11-16T15:25:40.133Z,10.02
2022-11-16T15:28:17.735Z,10.55
2022-11-16T15:30:51.633Z,10.18
2022-11-16T15:33:23.926Z,11.60
2022-11-16T15:35:50.881Z,11.88
2022-11-16T15:38:19.932Z,13.25
2022-11-16T15:40:56.519Z,11.77
2022-11-16T15:43:31.055Z,15.25
2022-11-16T15:45:59.248Z,12.13
2022-11-16T15:48:27.307Z,12.20
2022-11-16T15:51:12.372Z,17.60
2022-11-16T15:53:49.977Z,13.55
2022-11-16T15:56:19.051Z,12.82
2022-11-16T15:58:46.926Z,14.32
2022-11-16T16:01:14.793Z,13.52
2022-11-16T16:04:01.297Z,14.82
2022-11-16T16:06:46.698Z,13.65
2022-11-16T16:09:31.051Z,12.95
2022-11-16T16:12:19.973Z,12.45
2022-11-16T16:14:50.738Z,11.48
2022-11-16T16:17:29.366Z,11.43
2022-11-16T16:19:59.103Z,10.88
2022-11-16T16:22:29.466Z,10.77
2022-11-16T16:24:56.524Z,10.98
2022-11-16T16:27:28.644Z,10.52
2022-11-16T16:29:57.790Z,10.85
2022-11-16T16:32:29.564Z,10.13
2022-11-16T16:35:01.288Z,10.90
2022-11-16T16:37:29.958Z,10.40
2022-11-16T16:39:57.285Z,11.35
2022-11-16T16:42:24.029Z,11.48
2022-11-16T16:44:51.080Z,12.10
2022-11-16T16:47:20.662Z,12.32
2022-11-16T16:49:48.601Z,12.13
2022-11-16T16:52:15.408Z,11.32
2022-11-16T16:54:42.215Z,12.02
2022-11-16T16:57:16.374Z,11.38
2022-11-16T16:59:45.390Z,11.23
2022-11-16T17:02:12.783Z,11.13
2022-11-16T17:04:39.639Z,11.45
2022-11-16T17:07:06.435Z,10.88
2022-11-16T17:09:33.167Z,10.35
2022-11-16T17:11:59.850Z,10.23
2022-11-16T17:14:26.617Z,9.50
2022-11-16T17:16:53.359Z,10.00
2022-11-16T17:19:21.028Z,10.05
2022-11-16T17:21:47.818Z,9.23
2022-11-16T17:24:14.455Z,9.07
2022-11-16T17:26:41.211Z,8.70
2022-11-16T17:29:07.866Z,8.45
2022-11-16T17:31:34.598Z,8.93
2022-11-16T17:34:01.283Z,8.90
2022-11-16T17:36:27.967Z,8.38
2022-11-16T17:38:54.626Z,8.70
2022-11-16T17:41:22.202Z,8.13
2022-11-16T17:43:52.935Z,8.20
2022-11-16T17:46:21.547Z,7.70
2022-11-16T17:48:49.760Z,8.10
2022-11-16T17:51:18.862Z,7.32
2022-11-16T17:53:45.804Z,7.32
2022-11-16T17:56:19.020Z,7.57
2022-11-16T17:58:46.339Z,7.32
2022-11-16T18:01:14.245Z,6.63
2022-11-16T18:03:41.067Z,7.07
2022-11-16T18:06:11.301Z,7.07
2022-11-16T18:08:38.035Z,6.82
2022-11-16T18:11:06.583Z,6.38
2022-11-16T18:13:34.458Z,6.47
2022-11-16T18:16:17.922Z,6.78
2022-11-16T18:18:46.329Z,6.65
2022-11-16T18:21:20.358Z,6.55
2022-11-16T18:23:47.685Z,6.72
2022-11-16T18:26:18.672Z,6.25
2022-11-16T18:28:45.764Z,5.57
2022-11-16T18:31:15.463Z,6.13
2022-11-16T18:33:42.824Z,5.63
2022-11-16T18:36:10.210Z,4.95
2022-11-16T18:38:37.582Z,6.47
2022-11-16T18:41:14.299Z,5.90
2022-11-16T18:43:47.538Z,6.60
2022-11-16T18:46:14.212Z,6.25
2022-11-16T18:48:42.751Z,6.50
2022-11-16T18:51:10.458Z,6.32
2022-11-16T18:53:37.514Z,6.05
2022-11-16T18:56:05.032Z,6.30
2022-11-16T19:01:20.967Z,6.13
2022-11-16T19:03:47.824Z,6.25
2022-11-16T19:06:17.041Z,6.43
2022-11-16T19:08:46.860Z,5.97
2022-11-16T19:11:17.021Z,6.00
2022-11-16T19:13:44.571Z,6.35
2022-11-16T19:16:13.465Z,6.10
2022-11-16T19:18:40.414Z,5.88
2022-11-16T19:21:09.644Z,6.43
2022-11-16T19:23:44.438Z,6.47
2022-11-16T19:26:12.914Z,5.80
2022-11-16T19:28:45.235Z,6.20
2022-11-16T19:31:22.904Z,5.63
2022-11-16T19:33:54.978Z,6.13
2022-11-16T19:36:21.923Z,6.15
2022-11-16T19:38:48.731Z,6.43
2022-11-16T19:41:16.823Z,6.63
2022-11-16T19:43:43.535Z,6.72
2022-11-16T19:46:12.381Z,6.03
2022-11-16T19:48:39.510Z,6.15
2022-11-16T19:51:10.101Z,5.82
2022-11-16T19:53:38.001Z,6.03
2022-11-16T19:56:06.309Z,6.00
2022-11-16T19:58:36.914Z,6.22
2022-11-16T20:01:10.198Z,6.30
2022-11-16T20:03:38.363Z,5.78
2022-11-16T20:06:05.375Z,6.10
2022-11-16T20:08:32.060Z,5.95
2022-11-16T20:10:58.715Z,6.43
2022-11-16T20:13:25.348Z,6.30
2022-11-16T20:15:51.958Z,7.00
2022-11-16T20:18:18.679Z,6.93
2022-11-16T20:20:45.362Z,7.13
2022-11-16T20:23:15.653Z,6.97
2022-11-16T20:25:42.331Z,6.95
2022-11-16T20:28:09.531Z,7.25
2022-11-16T20:30:36.209Z,7.40
2022-11-16T20:33:02.943Z,7.10
2022-11-16T20:35:29.829Z,7.20
2022-11-16T20:37:56.569Z,7.28
2022-11-16T20:40:23.210Z,7.90
2022-11-16T20:42:50.016Z,6.97
2022-11-16T20:45:16.700Z,7.35
2022-11-16T20:47:43.520Z,6.72
2022-11-16T20:50:10.250Z,7.25
2022-11-16T20:52:41.208Z,6.75
2022-11-16T20:55:10.040Z,7.20
2022-11-16T20:57:36.952Z,7.45
2022-11-16T21:00:05.131Z,6.88
2022-11-16T21:02:31.760Z,7.95
2022-11-16T21:05:00.394Z,7.30
2022-11-16T21:07:28.197Z,7.18
2022-11-16T21:10:13.502Z,7.70
2022-11-16T21:12:58.887Z,8.50
2022-11-16T21:15:25.522Z,7.03
2022-11-16T21:17:52.195Z,8.00
2022-11-16T21:20:27.795Z,7.75
2022-11-16T21:22:54.944Z,7.03
2022-11-16T21:25:21.666Z,7.38
2022-11-16T21:27:48.343Z,7.20
2022-11-16T21:30:15.169Z,7.30
2022-11-16T21:32:41.845Z,7.40
2022-11-16T21:35:08.843Z,7.13
2022-11-16T21:37:35.488Z,7.60
2022-11-16T21:40:02.117Z,6.60
2022-11-16T21:42:28.814Z,6.85
2022-11-16T21:44:55.450Z,6.47
2022-11-16T21:47:22.160Z,7.30
2022-11-16T21:50:16.920Z,7.18
2022-11-16T21:52:35.431Z,6.50
2022-11-16T21:55:02.126Z,6.45
2022-11-16T21:57:28.789Z,6.38
2022-11-16T21:59:55.460Z,6.72
2022-11-16T22:02:22.091Z,6.60
2022-11-16T22:05:07.232Z,6.80
2022-11-16T22:07:34.038Z,6.95
2022-11-16T22:10:04.390Z,6.60
2022-11-16T22:12:31.056Z,6.68
2022-11-16T22:14:58.611Z,6.53
2022-11-16T22:17:25.715Z,6.85
2022-11-16T22:19:52.319Z,7.07
2022-11-16T22:22:19.175Z,7.65
2022-11-16T22:24:46.461Z,7.35
2022-11-16T22:27:15.112Z,7.45
2022-11-16T22:29:41.829Z,7.30
2022-11-16T22:32:09.380Z,7.95
2022-11-16T22:34:36.320Z,8.13
2022-11-16T22:37:03.011Z,8.05
2022-11-16T22:39:29.672Z,8.15
2022-11-16T22:41:56.351Z,8.57
2022-11-16T22:44:22.943Z,8.63
2022-11-16T22:46:49.675Z,8.27
2022-11-16T22:49:16.332Z,8.80
2022-11-16T22:51:43.237Z,8.77
2022-11-16T22:54:11.480Z,9.15
2022-11-16T22:56:38.608Z,9.23
2022-11-16T22:59:05.704Z,9.35
2022-11-16T23:01:32.625Z,9.43
2022-11-16T23:03:59.343Z,8.63
2022-11-16T23:06:26.031Z,8.48
2022-11-16T23:08:52.714Z,7.75
2022-11-16T23:11:40.454Z,9.30
2022-11-16T23:14:29.665Z,9.18
2022-11-16T23:16:56.487Z,8.30
2022-11-16T23:19:42.278Z,8.65
2022-11-16T23:22:35.454Z,9.07
2022-11-16T23:25:20.935Z,9.55
2022-11-16T23:27:58.139Z,8.80
2022-11-16T23:30:25.761Z,9.68
2022-11-16T23:32:52.618Z,9.77
2022-11-16T23:35:19.525Z,9.25
2022-11-16T23:38:06.545Z,9.82
2022-11-16T23:40:35.818Z,9.95
2022-11-16T23:43:21.412Z,9.98
2022-11-16T23:45:49.359Z,9.25
2022-11-16T23:48:17.362Z,9.70
2022-11-16T23:50:45.592Z,10.30
2022-11-16T23:53:12.762Z,9.32
2022-11-16T23:55:40.301Z,9.88
2022-11-16T23:58:11.708Z,9.48
